sensor_id;sensor_type;location;lat;lon;timestamp;P1;durP1;ratioP1;P2;durP2;ratioP2
11086;SDS011;5597;47.588;9.642;2023-02-28T00:00:21;7.83;;;5.90;;
11086;SDS011;5597;47.588;9.642;2023-02-28T00:02:47;7.77;;;6.13;;
11086;SDS011;5597;47.588;9.642;2023-02-28T00:05:14;9.23;;;5.80;;
11086;SDS011;5597;47.588;9.642;2023-02-28T00:07:41;6.77;;;5.87;;
11086;SDS011;5597;47.588;9.642;2023-02-28T00:10:08;6.43;;;5.77;;
11086;SDS011;5597;47.588;9.642;2023-02-28T00:12:36;6.43;;;5.80;;
11086;SDS011;5597;47.588;9.642;2023-02-28T00:15:03;8.03;;;6.37;;
11086;SDS011;5597;47.588;9.642;2023-02-28T00:17:31;7.90;;;6.33;;
11086;SDS011;5597;47.588;9.642;2023-02-28T00:19:56;7.70;;;6.07;;
11086;SDS011;5597;47.588;9.642;2023-02-28T00:22:29;8.23;;;6.03;;
11086;SDS011;5597;47.588;9.642;2023-02-28T00:24:55;7.20;;;6.27;;
11086;SDS011;5597;47.588;9.642;2023-02-28T00:27:21;6.87;;;6.17;;
11086;SDS011;5597;47.588;9.642;2023-02-28T00:29:47;8.20;;;6.40;;
11086;SDS011;5597;47.588;9.642;2023-02-28T00:32:13;6.93;;;6.03;;
11086;SDS011;5597;47.588;9.642;2023-02-28T00:34:38;8.00;;;6.20;;
11086;SDS011;5597;47.588;9.642;2023-02-28T00:37:07;8.47;;;6.47;;
11086;SDS011;5597;47.588;9.642;2023-02-28T00:39:35;8.47;;;6.57;;
11086;SDS011;5597;47.588;9.642;2023-02-28T00:42:02;8.10;;;6.50;;
11086;SDS011;5597;47.588;9.642;2023-02-28T00:44:28;6.77;;;6.00;;
11086;SDS011;5597;47.588;9.642;2023-02-28T00:46:54;6.90;;;5.97;;
11086;SDS011;5597;47.588;9.642;2023-02-28T00:49:21;7.37;;;5.87;;
11086;SDS011;5597;47.588;9.642;2023-02-28T00:51:47;8.10;;;6.13;;
11086;SDS011;5597;47.588;9.642;2023-02-28T00:54:13;7.53;;;6.27;;
11086;SDS011;5597;47.588;9.642;2023-02-28T00:56:38;7.03;;;6.13;;
11086;SDS011;5597;47.588;9.642;2023-02-28T00:59:04;7.30;;;6.07;;
11086;SDS011;5597;47.588;9.642;2023-02-28T01:01:30;7.73;;;6.23;;
11086;SDS011;5597;47.588;9.642;2023-02-28T01:03:56;7.63;;;6.40;;
11086;SDS011;5597;47.588;9.642;2023-02-28T01:06:21;7.47;;;6.27;;
11086;SDS011;5597;47.588;9.642;2023-02-28T01:08:47;9.03;;;6.23;;
11086;SDS011;5597;47.588;9.642;2023-02-28T01:11:13;6.37;;;5.73;;
11086;SDS011;5597;47.588;9.642;2023-02-28T01:13:42;6.97;;;6.00;;
11086;SDS011;5597;47.588;9.642;2023-02-28T01:16:08;7.23;;;5.70;;
11086;SDS011;5597;47.588;9.642;2023-02-28T01:18:34;7.13;;;6.37;;
11086;SDS011;5597;47.588;9.642;2023-02-28T01:21:04;9.20;;;5.80;;
11086;SDS011;5597;47.588;9.642;2023-02-28T01:23:35;6.77;;;6.17;;
11086;SDS011;5597;47.588;9.642;2023-02-28T01:26:07;6.37;;;5.77;;
11086;SDS011;5597;47.588;9.642;2023-02-28T01:28:34;6.43;;;5.70;;
11086;SDS011;5597;47.588;9.642;2023-02-28T01:31:00;6.50;;;5.80;;
11086;SDS011;5597;47.588;9.642;2023-02-28T01:33:26;8.33;;;6.30;;
11086;SDS011;5597;47.588;9.642;2023-02-28T01:36:03;7.07;;;6.10;;
11086;SDS011;5597;47.588;9.642;2023-02-28T01:38:35;7.30;;;5.57;;
11086;SDS011;5597;47.588;9.642;2023-02-28T01:41:01;6.43;;;5.80;;
11086;SDS011;5597;47.588;9.642;2023-02-28T01:43:29;6.93;;;6.13;;
11086;SDS011;5597;47.588;9.642;2023-02-28T01:45:56;7.67;;;6.07;;
11086;SDS011;5597;47.588;9.642;2023-02-28T01:48:27;6.40;;;5.60;;
11086;SDS011;5597;47.588;9.642;2023-02-28T01:50:56;7.47;;;5.80;;
11086;SDS011;5597;47.588;9.642;2023-02-28T01:53:31;7.30;;;6.17;;
11086;SDS011;5597;47.588;9.642;2023-02-28T01:55:59;7.17;;;5.90;;
11086;SDS011;5597;47.588;9.642;2023-02-28T01:58:27;6.77;;;5.90;;
11086;SDS011;5597;47.588;9.642;2023-02-28T02:00:53;7.27;;;5.60;;
11086;SDS011;5597;47.588;9.642;2023-02-28T02:03:18;8.30;;;6.43;;
11086;SDS011;5597;47.588;9.642;2023-02-28T02:05:45;7.83;;;5.93;;
11086;SDS011;5597;47.588;9.642;2023-02-28T02:08:22;6.47;;;5.70;;
11086;SDS011;5597;47.588;9.642;2023-02-28T02:10:51;7.07;;;5.70;;
11086;SDS011;5597;47.588;9.642;2023-02-28T02:15:51;6.23;;;5.60;;
11086;SDS011;5597;47.588;9.642;2023-02-28T02:35:34;6.83;;;6.00;;
11086;SDS011;5597;47.588;9.642;2023-02-28T02:38:17;6.87;;;5.40;;
11086;SDS011;5597;47.588;9.642;2023-02-28T02:49:27;9.73;;;6.50;;
11086;SDS011;5597;47.588;9.642;2023-02-28T02:51:56;6.97;;;5.80;;
11086;SDS011;5597;47.588;9.642;2023-02-28T02:54:27;7.40;;;6.37;;
11086;SDS011;5597;47.588;9.642;2023-02-28T02:56:56;7.23;;;6.40;;
11086;SDS011;5597;47.588;9.642;2023-02-28T02:59:26;7.13;;;6.40;;
11086;SDS011;5597;47.588;9.642;2023-02-28T03:01:55;6.63;;;5.83;;
11086;SDS011;5597;47.588;9.642;2023-02-28T03:04:24;7.50;;;6.30;;
11086;SDS011;5597;47.588;9.642;2023-02-28T03:06:53;8.00;;;6.17;;
11086;SDS011;5597;47.588;9.642;2023-02-28T03:09:20;7.27;;;6.30;;
11086;SDS011;5597;47.588;9.642;2023-02-28T03:11:51;7.47;;;6.40;;
11086;SDS011;5597;47.588;9.642;2023-02-28T03:14:34;7.53;;;6.17;;
11086;SDS011;5597;47.588;9.642;2023-02-28T03:25:31;6.93;;;6.20;;
11086;SDS011;5597;47.588;9.642;2023-02-28T03:28:05;7.83;;;6.73;;
11086;SDS011;5597;47.588;9.642;2023-02-28T03:30:54;6.47;;;5.87;;
11086;SDS011;5597;47.588;9.642;2023-02-28T03:35:55;6.83;;;6.03;;
11086;SDS011;5597;47.588;9.642;2023-02-28T03:38:29;7.43;;;6.63;;
11086;SDS011;5597;47.588;9.642;2023-02-28T03:41:13;8.10;;;6.93;;
11086;SDS011;5597;47.588;9.642;2023-02-28T03:44:29;7.33;;;6.30;;
11086;SDS011;5597;47.588;9.642;2023-02-28T03:46:40;7.90;;;6.50;;
11086;SDS011;5597;47.588;9.642;2023-02-28T03:51:45;7.00;;;6.30;;
11086;SDS011;5597;47.588;9.642;2023-02-28T03:54:14;8.40;;;6.83;;
11086;SDS011;5597;47.588;9.642;2023-02-28T04:02:07;6.90;;;6.20;;
11086;SDS011;5597;47.588;9.642;2023-02-28T04:04:33;8.17;;;6.97;;
11086;SDS011;5597;47.588;9.642;2023-02-28T04:07:06;7.87;;;6.97;;
11086;SDS011;5597;47.588;9.642;2023-02-28T04:09:34;8.30;;;7.20;;
11086;SDS011;5597;47.588;9.642;2023-02-28T04:11:59;9.50;;;6.87;;
11086;SDS011;5597;47.588;9.642;2023-02-28T04:14:25;8.33;;;6.70;;
11086;SDS011;5597;47.588;9.642;2023-02-28T04:16:51;6.93;;;6.23;;
11086;SDS011;5597;47.588;9.642;2023-02-28T04:19:17;7.57;;;6.77;;
11086;SDS011;5597;47.588;9.642;2023-02-28T04:21:44;8.17;;;6.60;;
11086;SDS011;5597;47.588;9.642;2023-02-28T04:24:15;7.30;;;6.47;;
11086;SDS011;5597;47.588;9.642;2023-02-28T04:26:45;8.13;;;7.03;;
11086;SDS011;5597;47.588;9.642;2023-02-28T04:29:13;9.60;;;7.10;;
11086;SDS011;5597;47.588;9.642;2023-02-28T04:31:42;7.90;;;7.10;;
11086;SDS011;5597;47.588;9.642;2023-02-28T04:34:08;8.07;;;6.60;;
11086;SDS011;5597;47.588;9.642;2023-02-28T04:36:33;9.47;;;7.10;;
11086;SDS011;5597;47.588;9.642;2023-02-28T04:38:59;8.63;;;6.53;;
11086;SDS011;5597;47.588;9.642;2023-02-28T04:41:25;8.30;;;6.70;;
11086;SDS011;5597;47.588;9.642;2023-02-28T04:43:51;8.27;;;6.90;;
11086;SDS011;5597;47.588;9.642;2023-02-28T04:46:17;7.77;;;6.97;;
11086;SDS011;5597;47.588;9.642;2023-02-28T04:48:44;9.77;;;7.40;;
11086;SDS011;5597;47.588;9.642;2023-02-28T04:51:10;7.93;;;6.37;;
11086;SDS011;5597;47.588;9.642;2023-02-28T04:53:39;8.23;;;6.90;;
11086;SDS011;5597;47.588;9.642;2023-02-28T04:56:06;8.13;;;6.97;;
11086;SDS011;5597;47.588;9.642;2023-02-28T04:58:33;9.10;;;7.30;;
11086;SDS011;5597;47.588;9.642;2023-02-28T05:01:03;8.93;;;7.17;;
11086;SDS011;5597;47.588;9.642;2023-02-28T05:03:38;10.23;;;8.77;;
11086;SDS011;5597;47.588;9.642;2023-02-28T05:06:06;9.17;;;7.20;;
11086;SDS011;5597;47.588;9.642;2023-02-28T05:08:34;11.43;;;10.23;;
11086;SDS011;5597;47.588;9.642;2023-02-28T05:11:01;9.00;;;7.30;;
11086;SDS011;5597;47.588;9.642;2023-02-28T05:13:27;9.10;;;7.70;;
11086;SDS011;5597;47.588;9.642;2023-02-28T05:15:53;9.23;;;8.03;;
11086;SDS011;5597;47.588;9.642;2023-02-28T05:18:19;8.20;;;6.87;;
11086;SDS011;5597;47.588;9.642;2023-02-28T05:20:45;8.27;;;6.73;;
11086;SDS011;5597;47.588;9.642;2023-02-28T05:23:11;8.43;;;7.10;;
11086;SDS011;5597;47.588;9.642;2023-02-28T05:25:38;7.77;;;6.57;;
11086;SDS011;5597;47.588;9.642;2023-02-28T05:28:04;10.00;;;7.47;;
11086;SDS011;5597;47.588;9.642;2023-02-28T05:30:29;11.63;;;7.87;;
11086;SDS011;5597;47.588;9.642;2023-02-28T05:32:56;8.50;;;6.80;;
11086;SDS011;5597;47.588;9.642;2023-02-28T05:35:23;9.47;;;8.03;;
11086;SDS011;5597;47.588;9.642;2023-02-28T05:37:49;8.63;;;7.67;;
11086;SDS011;5597;47.588;9.642;2023-02-28T05:40:15;11.63;;;9.40;;
11086;SDS011;5597;47.588;9.642;2023-02-28T05:42:41;13.53;;;10.47;;
11086;SDS011;5597;47.588;9.642;2023-02-28T05:45:07;11.37;;;8.60;;
11086;SDS011;5597;47.588;9.642;2023-02-28T05:47:33;10.07;;;8.40;;
11086;SDS011;5597;47.588;9.642;2023-02-28T05:49:59;16.47;;;11.60;;
11086;SDS011;5597;47.588;9.642;2023-02-28T05:52:25;9.93;;;8.13;;
11086;SDS011;5597;47.588;9.642;2023-02-28T05:54:52;10.13;;;8.33;;
11086;SDS011;5597;47.588;9.642;2023-02-28T05:57:18;15.17;;;8.27;;
11086;SDS011;5597;47.588;9.642;2023-02-28T05:59:43;11.93;;;10.63;;
11086;SDS011;5597;47.588;9.642;2023-02-28T06:02:12;8.40;;;7.33;;
11086;SDS011;5597;47.588;9.642;2023-02-28T06:04:39;9.70;;;8.10;;
11086;SDS011;5597;47.588;9.642;2023-02-28T06:07:06;9.57;;;8.30;;
11086;SDS011;5597;47.588;9.642;2023-02-28T06:09:32;11.17;;;8.43;;
11086;SDS011;5597;47.588;9.642;2023-02-28T06:11:59;9.20;;;8.20;;
11086;SDS011;5597;47.588;9.642;2023-02-28T06:14:25;8.50;;;7.40;;
11086;SDS011;5597;47.588;9.642;2023-02-28T06:16:51;11.80;;;8.27;;
11086;SDS011;5597;47.588;9.642;2023-02-28T06:19:17;9.20;;;7.30;;
11086;SDS011;5597;47.588;9.642;2023-02-28T06:21:43;9.47;;;6.77;;
11086;SDS011;5597;47.588;9.642;2023-02-28T06:24:08;9.67;;;7.70;;
11086;SDS011;5597;47.588;9.642;2023-02-28T06:26:35;9.13;;;7.63;;
11086;SDS011;5597;47.588;9.642;2023-02-28T06:29:01;9.80;;;7.87;;
11086;SDS011;5597;47.588;9.642;2023-02-28T06:31:27;10.13;;;8.20;;
11086;SDS011;5597;47.588;9.642;2023-02-28T06:33:54;10.70;;;8.23;;
11086;SDS011;5597;47.588;9.642;2023-02-28T06:36:20;9.47;;;7.60;;
11086;SDS011;5597;47.588;9.642;2023-02-28T06:38:45;9.03;;;7.70;;
11086;SDS011;5597;47.588;9.642;2023-02-28T06:41:16;11.07;;;8.20;;
11086;SDS011;5597;47.588;9.642;2023-02-28T06:43:42;8.47;;;7.37;;
11086;SDS011;5597;47.588;9.642;2023-02-28T06:46:10;9.93;;;7.67;;
11086;SDS011;5597;47.588;9.642;2023-02-28T06:48:37;9.53;;;7.70;;
11086;SDS011;5597;47.588;9.642;2023-02-28T06:53:35;8.97;;;7.60;;
11086;SDS011;5597;47.588;9.642;2023-02-28T06:56:08;9.23;;;7.63;;
11086;SDS011;5597;47.588;9.642;2023-02-28T06:58:35;9.87;;;7.50;;
11086;SDS011;5597;47.588;9.642;2023-02-28T07:01:02;8.77;;;7.67;;
11086;SDS011;5597;47.588;9.642;2023-02-28T07:03:28;9.53;;;7.60;;
11086;SDS011;5597;47.588;9.642;2023-02-28T07:05:54;10.60;;;7.73;;
11086;SDS011;5597;47.588;9.642;2023-02-28T07:08:21;9.67;;;7.60;;
11086;SDS011;5597;47.588;9.642;2023-02-28T07:10:50;9.73;;;8.17;;
11086;SDS011;5597;47.588;9.642;2023-02-28T07:13:17;10.03;;;7.90;;
11086;SDS011;5597;47.588;9.642;2023-02-28T07:15:42;9.90;;;8.17;;
11086;SDS011;5597;47.588;9.642;2023-02-28T07:18:08;9.27;;;7.67;;
11086;SDS011;5597;47.588;9.642;2023-02-28T07:20:34;9.10;;;7.47;;
11086;SDS011;5597;47.588;9.642;2023-02-28T07:23:00;9.37;;;7.57;;
11086;SDS011;5597;47.588;9.642;2023-02-28T07:25:26;9.57;;;7.87;;
11086;SDS011;5597;47.588;9.642;2023-02-28T07:27:53;11.07;;;7.77;;
11086;SDS011;5597;47.588;9.642;2023-02-28T07:30:19;10.40;;;8.20;;
11086;SDS011;5597;47.588;9.642;2023-02-28T07:32:45;9.93;;;7.20;;
11086;SDS011;5597;47.588;9.642;2023-02-28T07:35:11;9.67;;;7.67;;
11086;SDS011;5597;47.588;9.642;2023-02-28T07:37:37;11.50;;;7.67;;
11086;SDS011;5597;47.588;9.642;2023-02-28T07:40:06;9.67;;;8.17;;
11086;SDS011;5597;47.588;9.642;2023-02-28T07:42:33;11.40;;;8.50;;
11086;SDS011;5597;47.588;9.642;2023-02-28T07:44:59;10.33;;;8.00;;
11086;SDS011;5597;47.588;9.642;2023-02-28T07:47:25;10.07;;;7.97;;
11086;SDS011;5597;47.588;9.642;2023-02-28T07:49:51;9.03;;;7.30;;
11086;SDS011;5597;47.588;9.642;2023-02-28T07:52:17;11.00;;;7.80;;
11086;SDS011;5597;47.588;9.642;2023-02-28T07:54:43;8.17;;;7.30;;
11086;SDS011;5597;47.588;9.642;2023-02-28T07:57:08;9.40;;;7.47;;
11086;SDS011;5597;47.588;9.642;2023-02-28T07:59:34;9.53;;;7.57;;
11086;SDS011;5597;47.588;9.642;2023-02-28T08:01:59;9.37;;;7.77;;
11086;SDS011;5597;47.588;9.642;2023-02-28T08:04:25;10.17;;;7.70;;
11086;SDS011;5597;47.588;9.642;2023-02-28T08:06:51;8.73;;;7.57;;
11086;SDS011;5597;47.588;9.642;2023-02-28T08:09:21;11.30;;;7.90;;
11086;SDS011;5597;47.588;9.642;2023-02-28T08:11:47;11.23;;;8.73;;
11086;SDS011;5597;47.588;9.642;2023-02-28T08:14:12;19.67;;;13.83;;
11086;SDS011;5597;47.588;9.642;2023-02-28T08:16:38;10.87;;;9.03;;
11086;SDS011;5597;47.588;9.642;2023-02-28T08:19:04;8.93;;;8.03;;
11086;SDS011;5597;47.588;9.642;2023-02-28T08:21:29;8.90;;;7.37;;
11086;SDS011;5597;47.588;9.642;2023-02-28T08:23:55;8.87;;;7.27;;
11086;SDS011;5597;47.588;9.642;2023-02-28T08:26:22;8.07;;;7.13;;
11086;SDS011;5597;47.588;9.642;2023-02-28T08:28:47;9.30;;;7.37;;
11086;SDS011;5597;47.588;9.642;2023-02-28T08:31:14;10.07;;;7.57;;
11086;SDS011;5597;47.588;9.642;2023-02-28T08:33:40;8.27;;;7.03;;
11086;SDS011;5597;47.588;9.642;2023-02-28T08:36:07;8.37;;;7.17;;
11086;SDS011;5597;47.588;9.642;2023-02-28T08:38:34;9.70;;;7.20;;
11086;SDS011;5597;47.588;9.642;2023-02-28T08:41:01;9.33;;;7.10;;
11086;SDS011;5597;47.588;9.642;2023-02-28T08:43:33;8.00;;;6.93;;
11086;SDS011;5597;47.588;9.642;2023-02-28T08:45:59;8.87;;;7.10;;
11086;SDS011;5597;47.588;9.642;2023-02-28T08:48:26;8.37;;;7.40;;
11086;SDS011;5597;47.588;9.642;2023-02-28T08:50:57;8.40;;;6.83;;
11086;SDS011;5597;47.588;9.642;2023-02-28T08:53:27;7.57;;;6.73;;
11086;SDS011;5597;47.588;9.642;2023-02-28T08:55:57;7.60;;;6.80;;
11086;SDS011;5597;47.588;9.642;2023-02-28T08:58:23;8.73;;;6.73;;
11086;SDS011;5597;47.588;9.642;2023-02-28T09:00:49;8.53;;;7.20;;
11086;SDS011;5597;47.588;9.642;2023-02-28T09:03:15;8.87;;;6.63;;
11086;SDS011;5597;47.588;9.642;2023-02-28T09:05:42;8.53;;;6.90;;
11086;SDS011;5597;47.588;9.642;2023-02-28T09:08:17;9.53;;;6.97;;
11086;SDS011;5597;47.588;9.642;2023-02-28T09:10:42;9.73;;;7.03;;
11086;SDS011;5597;47.588;9.642;2023-02-28T09:13:08;7.70;;;6.60;;
11086;SDS011;5597;47.588;9.642;2023-02-28T09:15:34;9.40;;;7.07;;
11086;SDS011;5597;47.588;9.642;2023-02-28T09:18:01;8.00;;;6.83;;
11086;SDS011;5597;47.588;9.642;2023-02-28T09:20:27;7.70;;;6.67;;
11086;SDS011;5597;47.588;9.642;2023-02-28T09:22:52;9.37;;;7.10;;
11086;SDS011;5597;47.588;9.642;2023-02-28T09:25:18;9.03;;;6.70;;
11086;SDS011;5597;47.588;9.642;2023-02-28T09:27:43;8.67;;;7.00;;
11086;SDS011;5597;47.588;9.642;2023-02-28T09:30:10;8.67;;;6.23;;
11086;SDS011;5597;47.588;9.642;2023-02-28T09:32:36;8.13;;;6.30;;
11086;SDS011;5597;47.588;9.642;2023-02-28T09:35:02;7.57;;;6.67;;
11086;SDS011;5597;47.588;9.642;2023-02-28T09:37:28;7.97;;;6.80;;
11086;SDS011;5597;47.588;9.642;2023-02-28T09:39:54;7.67;;;6.57;;
11086;SDS011;5597;47.588;9.642;2023-02-28T09:42:32;7.80;;;6.63;;
11086;SDS011;5597;47.588;9.642;2023-02-28T09:45:00;9.23;;;6.37;;
11086;SDS011;5597;47.588;9.642;2023-02-28T09:47:33;9.03;;;6.60;;
11086;SDS011;5597;47.588;9.642;2023-02-28T09:50:07;9.30;;;6.90;;
11086;SDS011;5597;47.588;9.642;2023-02-28T09:52:44;7.97;;;6.80;;
11086;SDS011;5597;47.588;9.642;2023-02-28T09:58:04;7.70;;;6.87;;
11086;SDS011;5597;47.588;9.642;2023-02-28T10:00:34;8.20;;;7.23;;
11086;SDS011;5597;47.588;9.642;2023-02-28T10:08:45;7.47;;;6.70;;
11086;SDS011;5597;47.588;9.642;2023-02-28T10:11:15;7.63;;;6.83;;
11086;SDS011;5597;47.588;9.642;2023-02-28T10:13:50;7.80;;;7.00;;
11086;SDS011;5597;47.588;9.642;2023-02-28T10:16:29;7.80;;;7.00;;
11086;SDS011;5597;47.588;9.642;2023-02-28T10:19:03;7.47;;;6.37;;
11086;SDS011;5597;47.588;9.642;2023-02-28T10:21:36;7.73;;;6.73;;
11086;SDS011;5597;47.588;9.642;2023-02-28T10:26:56;7.80;;;6.30;;
11086;SDS011;5597;47.588;9.642;2023-02-28T10:29:40;7.20;;;6.33;;
11086;SDS011;5597;47.588;9.642;2023-02-28T10:32:09;7.20;;;6.50;;
11086;SDS011;5597;47.588;9.642;2023-02-28T10:34:39;7.30;;;6.60;;
11086;SDS011;5597;47.588;9.642;2023-02-28T10:37:05;7.03;;;6.27;;
11086;SDS011;5597;47.588;9.642;2023-02-28T10:39:35;11.80;;;9.80;;
11086;SDS011;5597;47.588;9.642;2023-02-28T10:42:04;9.50;;;7.73;;
11086;SDS011;5597;47.588;9.642;2023-02-28T10:44:30;24.33;;;15.60;;
11086;SDS011;5597;47.588;9.642;2023-02-28T10:46:56;15.37;;;11.17;;
11086;SDS011;5597;47.588;9.642;2023-02-28T10:49:23;11.23;;;8.77;;
11086;SDS011;5597;47.588;9.642;2023-02-28T10:52:00;7.87;;;6.80;;
11086;SDS011;5597;47.588;9.642;2023-02-28T10:54:33;8.37;;;7.40;;
11086;SDS011;5597;47.588;9.642;2023-02-28T10:57:16;9.10;;;7.83;;
11086;SDS011;5597;47.588;9.642;2023-02-28T10:59:45;8.73;;;7.53;;
11086;SDS011;5597;47.588;9.642;2023-02-28T11:02:29;8.43;;;7.63;;
11086;SDS011;5597;47.588;9.642;2023-02-28T11:04:56;7.63;;;6.87;;
11086;SDS011;5597;47.588;9.642;2023-02-28T11:07:22;11.97;;;9.73;;
11086;SDS011;5597;47.588;9.642;2023-02-28T11:09:50;8.53;;;7.37;;
11086;SDS011;5597;47.588;9.642;2023-02-28T11:12:21;12.20;;;9.80;;
11086;SDS011;5597;47.588;9.642;2023-02-28T11:15:02;8.83;;;7.37;;
11086;SDS011;5597;47.588;9.642;2023-02-28T11:17:31;8.37;;;7.57;;
11086;SDS011;5597;47.588;9.642;2023-02-28T11:20:06;8.90;;;8.00;;
11086;SDS011;5597;47.588;9.642;2023-02-28T11:22:43;8.43;;;7.57;;
11086;SDS011;5597;47.588;9.642;2023-02-28T11:25:16;10.60;;;8.37;;
11086;SDS011;5597;47.588;9.642;2023-02-28T11:27:51;8.17;;;7.30;;
11086;SDS011;5597;47.588;9.642;2023-02-28T11:32:56;8.70;;;7.40;;
11086;SDS011;5597;47.588;9.642;2023-02-28T11:35:29;9.00;;;7.60;;
11086;SDS011;5597;47.588;9.642;2023-02-28T11:37:59;8.10;;;7.30;;
11086;SDS011;5597;47.588;9.642;2023-02-28T11:40:29;9.73;;;7.77;;
11086;SDS011;5597;47.588;9.642;2023-02-28T11:43:09;8.83;;;7.93;;
11086;SDS011;5597;47.588;9.642;2023-02-28T11:45:54;9.37;;;7.90;;
11086;SDS011;5597;47.588;9.642;2023-02-28T11:48:49;9.87;;;8.53;;
11086;SDS011;5597;47.588;9.642;2023-02-28T11:51:32;10.97;;;8.43;;
11086;SDS011;5597;47.588;9.642;2023-02-28T11:54:15;9.03;;;8.03;;
11086;SDS011;5597;47.588;9.642;2023-02-28T12:00:06;10.03;;;8.60;;
11086;SDS011;5597;47.588;9.642;2023-02-28T12:03:04;9.43;;;7.97;;
11086;SDS011;5597;47.588;9.642;2023-02-28T12:08:26;9.33;;;8.43;;
11086;SDS011;5597;47.588;9.642;2023-02-28T12:22:30;10.23;;;8.73;;
11086;SDS011;5597;47.588;9.642;2023-02-28T12:25:21;10.93;;;8.63;;
11086;SDS011;5597;47.588;9.642;2023-02-28T12:27:57;9.83;;;8.13;;
11086;SDS011;5597;47.588;9.642;2023-02-28T12:30:30;9.53;;;8.53;;
11086;SDS011;5597;47.588;9.642;2023-02-28T12:33:12;9.93;;;8.47;;
11086;SDS011;5597;47.588;9.642;2023-02-28T12:38:20;9.87;;;8.87;;
11086;SDS011;5597;47.588;9.642;2023-02-28T12:43:28;10.17;;;8.57;;
11086;SDS011;5597;47.588;9.642;2023-02-28T12:45:59;10.30;;;9.20;;
11086;SDS011;5597;47.588;9.642;2023-02-28T12:48:33;10.23;;;8.83;;
11086;SDS011;5597;47.588;9.642;2023-02-28T12:51:05;10.47;;;8.73;;
11086;SDS011;5597;47.588;9.642;2023-02-28T13:07:21;10.70;;;9.40;;
11086;SDS011;5597;47.588;9.642;2023-02-28T13:10:00;12.47;;;9.20;;
11086;SDS011;5597;47.588;9.642;2023-02-28T13:12:28;46.53;;;23.70;;
11086;SDS011;5597;47.588;9.642;2023-02-28T13:15:05;10.57;;;9.40;;
11086;SDS011;5597;47.588;9.642;2023-02-28T13:17:40;9.97;;;8.90;;
11086;SDS011;5597;47.588;9.642;2023-02-28T13:20:21;11.20;;;9.37;;
11086;SDS011;5597;47.588;9.642;2023-02-28T13:22:51;16.20;;;11.70;;
11086;SDS011;5597;47.588;9.642;2023-02-28T13:27:48;11.53;;;9.13;;
11086;SDS011;5597;47.588;9.642;2023-02-28T13:33:27;11.33;;;10.00;;
11086;SDS011;5597;47.588;9.642;2023-02-28T13:38:42;11.47;;;9.87;;
11086;SDS011;5597;47.588;9.642;2023-02-28T13:46:36;11.47;;;9.60;;
11086;SDS011;5597;47.588;9.642;2023-02-28T13:51:51;13.40;;;10.67;;
11086;SDS011;5597;47.588;9.642;2023-02-28T13:54:24;12.20;;;10.30;;
11086;SDS011;5597;47.588;9.642;2023-02-28T13:59:56;13.20;;;10.03;;
11086;SDS011;5597;47.588;9.642;2023-02-28T14:10:31;14.27;;;11.60;;
11086;SDS011;5597;47.588;9.642;2023-02-28T14:18:32;15.40;;;11.57;;
11086;SDS011;5597;47.588;9.642;2023-02-28T14:21:10;12.27;;;10.77;;
11086;SDS011;5597;47.588;9.642;2023-02-28T14:29:43;13.07;;;11.03;;
11086;SDS011;5597;47.588;9.642;2023-02-28T14:32:21;14.00;;;10.87;;
11086;SDS011;5597;47.588;9.642;2023-02-28T14:35:03;13.70;;;11.17;;
11086;SDS011;5597;47.588;9.642;2023-02-28T14:37:47;13.73;;;10.80;;
11086;SDS011;5597;47.588;9.642;2023-02-28T14:40:21;12.83;;;11.03;;
11086;SDS011;5597;47.588;9.642;2023-02-28T14:42:57;13.27;;;11.13;;
11086;SDS011;5597;47.588;9.642;2023-02-28T14:45:25;13.63;;;11.07;;
11086;SDS011;5597;47.588;9.642;2023-02-28T14:47:55;16.27;;;11.60;;
11086;SDS011;5597;47.588;9.642;2023-02-28T14:50:32;14.57;;;11.37;;
11086;SDS011;5597;47.588;9.642;2023-02-28T14:53:00;13.93;;;11.10;;
11086;SDS011;5597;47.588;9.642;2023-02-28T14:55:36;14.00;;;11.17;;
11086;SDS011;5597;47.588;9.642;2023-02-28T14:58:05;15.03;;;12.10;;
11086;SDS011;5597;47.588;9.642;2023-02-28T15:00:32;13.07;;;10.87;;
11086;SDS011;5597;47.588;9.642;2023-02-28T15:03:00;12.97;;;10.97;;
11086;SDS011;5597;47.588;9.642;2023-02-28T15:05:41;14.07;;;11.93;;
11086;SDS011;5597;47.588;9.642;2023-02-28T15:08:15;14.87;;;12.27;;
11086;SDS011;5597;47.588;9.642;2023-02-28T15:10:45;14.83;;;12.33;;
11086;SDS011;5597;47.588;9.642;2023-02-28T15:13:23;15.03;;;11.83;;
11086;SDS011;5597;47.588;9.642;2023-02-28T15:16:00;14.60;;;12.27;;
11086;SDS011;5597;47.588;9.642;2023-02-28T15:21:15;15.57;;;12.60;;
11086;SDS011;5597;47.588;9.642;2023-02-28T15:26:27;15.47;;;11.77;;
11086;SDS011;5597;47.588;9.642;2023-02-28T15:29:05;14.80;;;12.00;;
11086;SDS011;5597;47.588;9.642;2023-02-28T15:31:34;15.43;;;12.07;;
11086;SDS011;5597;47.588;9.642;2023-02-28T15:34:12;17.47;;;12.40;;
11086;SDS011;5597;47.588;9.642;2023-02-28T15:36:47;14.73;;;11.57;;
11086;SDS011;5597;47.588;9.642;2023-02-28T15:39:18;15.80;;;12.57;;
11086;SDS011;5597;47.588;9.642;2023-02-28T15:41:49;17.87;;;13.10;;
11086;SDS011;5597;47.588;9.642;2023-02-28T15:49:29;16.17;;;12.13;;
11086;SDS011;5597;47.588;9.642;2023-02-28T15:52:04;13.70;;;11.83;;
11086;SDS011;5597;47.588;9.642;2023-02-28T15:54:32;16.27;;;12.83;;
11086;SDS011;5597;47.588;9.642;2023-02-28T15:57:12;16.87;;;12.47;;
11086;SDS011;5597;47.588;9.642;2023-02-28T15:59:42;17.40;;;13.20;;
11086;SDS011;5597;47.588;9.642;2023-02-28T16:02:17;15.93;;;12.23;;
11086;SDS011;5597;47.588;9.642;2023-02-28T16:07:38;15.47;;;12.47;;
11086;SDS011;5597;47.588;9.642;2023-02-28T16:10:06;16.83;;;13.10;;
11086;SDS011;5597;47.588;9.642;2023-02-28T16:12:34;16.17;;;12.23;;
11086;SDS011;5597;47.588;9.642;2023-02-28T16:15:05;16.43;;;12.97;;
11086;SDS011;5597;47.588;9.642;2023-02-28T16:17:52;15.93;;;12.23;;
11086;SDS011;5597;47.588;9.642;2023-02-28T16:20:20;16.50;;;12.90;;
11086;SDS011;5597;47.588;9.642;2023-02-28T16:22:51;14.53;;;11.90;;
11086;SDS011;5597;47.588;9.642;2023-02-28T16:25:19;16.80;;;12.77;;
11086;SDS011;5597;47.588;9.642;2023-02-28T16:27:48;16.83;;;12.27;;
11086;SDS011;5597;47.588;9.642;2023-02-28T16:30:22;16.33;;;12.23;;
11086;SDS011;5597;47.588;9.642;2023-02-28T16:32:49;15.87;;;12.50;;
11086;SDS011;5597;47.588;9.642;2023-02-28T16:35:16;17.50;;;12.83;;
11086;SDS011;5597;47.588;9.642;2023-02-28T16:37:43;17.67;;;13.53;;
11086;SDS011;5597;47.588;9.642;2023-02-28T16:40:13;15.40;;;12.53;;
11086;SDS011;5597;47.588;9.642;2023-02-28T16:42:40;16.20;;;12.67;;
11086;SDS011;5597;47.588;9.642;2023-02-28T16:45:10;16.13;;;13.13;;
11086;SDS011;5597;47.588;9.642;2023-02-28T16:47:41;17.30;;;13.50;;
11086;SDS011;5597;47.588;9.642;2023-02-28T16:50:40;20.13;;;14.83;;
11086;SDS011;5597;47.588;9.642;2023-02-28T16:52:59;18.90;;;13.80;;
11086;SDS011;5597;47.588;9.642;2023-02-28T16:55:25;17.97;;;13.40;;
11086;SDS011;5597;47.588;9.642;2023-02-28T16:57:52;17.80;;;13.73;;
11086;SDS011;5597;47.588;9.642;2023-02-28T17:00:20;19.00;;;13.47;;
11086;SDS011;5597;47.588;9.642;2023-02-28T17:02:46;19.80;;;14.20;;
11086;SDS011;5597;47.588;9.642;2023-02-28T17:05:12;20.93;;;15.53;;
11086;SDS011;5597;47.588;9.642;2023-02-28T17:07:39;18.80;;;13.50;;
11086;SDS011;5597;47.588;9.642;2023-02-28T17:10:23;20.70;;;14.40;;
11086;SDS011;5597;47.588;9.642;2023-02-28T17:12:50;17.37;;;13.67;;
11086;SDS011;5597;47.588;9.642;2023-02-28T17:15:17;19.10;;;14.30;;
11086;SDS011;5597;47.588;9.642;2023-02-28T17:17:43;18.47;;;14.47;;
11086;SDS011;5597;47.588;9.642;2023-02-28T17:20:13;21.03;;;15.63;;
11086;SDS011;5597;47.588;9.642;2023-02-28T17:22:41;26.37;;;19.30;;
11086;SDS011;5597;47.588;9.642;2023-02-28T17:25:07;18.73;;;14.67;;
11086;SDS011;5597;47.588;9.642;2023-02-28T17:27:34;21.13;;;15.27;;
11086;SDS011;5597;47.588;9.642;2023-02-28T17:30:00;24.27;;;18.17;;
11086;SDS011;5597;47.588;9.642;2023-02-28T17:32:26;18.47;;;14.30;;
11086;SDS011;5597;47.588;9.642;2023-02-28T17:34:52;18.77;;;14.20;;
11086;SDS011;5597;47.588;9.642;2023-02-28T17:37:18;19.53;;;14.30;;
11086;SDS011;5597;47.588;9.642;2023-02-28T17:39:43;19.47;;;14.50;;